Aérodrome :
LOGIN :

S'inscrire | Disclaimer

   EN    FR    IT 

 










Légende :    VFR   VFR Marginal   IFR   IFR Intensif   IFR Très Intensif
Visi : 
Plafond : 
>= 8 km
>= 3000ft
5 à 8 km
1000 à 3000 ft
1500m à 5 km
500 à 1000 ft
800 à 1500m
200 à 500 ft
< 800m
< 200 ft
Symboles :   Orages  Brouillard  Fortes neiges  Fortes précipitations  Vent > 20 kt
SIGMETs :   Divers  Orages  Givrage  Turbulence  Onde Orograph.  Cendres Volcan.






- Altitude de l'aérodrome : 138 ft
- Code IATA : BIO


LEBB - Bilbao

DERNIER METAR :
  • 081530Z 29009KT 260V330 9999 FEW026 SCT060 12/06 Q1020 NOSIG

METARs EXPIRÉS :
  • 081500Z 32009KT 290V350 9999 FEW026 BKN060 11/05 Q1020 NOSIG
  • 081430Z 33007KT 300V360 9999 FEW026 BKN052 11/06 Q1020 NOSIG
  • 081400Z 33008KT 300V360 9999 FEW026 BKN058 11/06 Q1019 NOSIG
  • 081330Z 34006KT 300V010 9999 FEW040 BKN050 11/06 Q1020 NOSIG
  • 081300Z 34006KT 300V010 9999 FEW028 SCT042 BKN054 11/05 Q1020 NOSIG

TAF TAF LEBB
Valide du 08 à 12h jusqu'au 09 à 12h UTC


081100Z 0812/0912 32009KT 9999 FEW030 SCT045 TX12/0814Z TN03/0902Z
BECMG 0818/0820 VRB05KT
PROB30
TEMPO 0818/0821 RA
TEMPO 0821/0909 RA
PROB40
TEMPO 0822/0908 3000 RA BR BKN010



MET'MAP, la Météo Aéronautique d'un coup d'oeil ! - Copyright ORBIFLY Décembre 2007 - Disclaimer

ORBIFLY MET'MAP TEAM :

Programmation & Développement : Alexandra Zaïnal
Sur une idée originale de : Baudouin d'Aumeries
Assistance à la programmation : Marc-Olivier Méhu
Soutien technique & logistique : Manuel Goepfert

Contact : metmap@orbifly.com




SOURCES & CREDITS :

   NOAA